createdAt,value
2022-09-23T00:01:11.346Z,59.59
2022-09-23T00:03:41.950Z,58.88
2022-09-23T00:06:21.755Z,60.17
2022-09-23T00:08:49.273Z,59.64
2022-09-23T00:11:18.559Z,60.67
2022-09-23T00:13:47.116Z,61.40
2022-09-23T00:16:27.600Z,60.43
2022-09-23T00:18:54.552Z,60.23
2022-09-23T00:21:22.468Z,60.50
2022-09-23T00:23:49.383Z,59.96
2022-09-23T00:26:22.233Z,59.45
2022-09-23T00:28:50.038Z,59.55
2022-09-23T00:31:25.755Z,59.36
2022-09-23T00:34:01.971Z,58.68
2022-09-23T00:36:39.034Z,57.73
2022-09-23T00:39:05.959Z,58.05
2022-09-23T00:41:33.130Z,58.14
2022-09-23T00:44:01.325Z,58.16
2022-09-23T00:46:49.308Z,56.94
2022-09-23T00:49:24.515Z,57.03
2022-09-23T00:51:59.067Z,57.73
2022-09-23T00:54:27.117Z,57.57
2022-09-23T00:56:55.460Z,58.43
2022-09-23T00:59:23.199Z,58.94
2022-09-23T01:01:52.955Z,58.66
2022-09-23T01:04:19.638Z,58.65
2022-09-23T01:06:46.442Z,58.29
2022-09-23T01:09:13.235Z,57.97
2022-09-23T01:11:49.732Z,58.05
2022-09-23T01:14:59.876Z,58.31
2022-09-23T01:17:44.817Z,58.96
2022-09-23T01:20:48.394Z,58.53
2022-09-23T01:23:37.004Z,59.09
2022-09-23T01:26:25.678Z,58.33
2022-09-23T01:29:10.693Z,59.13
2022-09-23T01:31:37.302Z,59.04
2022-09-23T01:34:06.687Z,59.58
2022-09-23T01:36:36.170Z,58.91
2022-09-23T01:39:22.723Z,59.22
2022-09-23T01:42:06.467Z,59.20
2022-09-23T01:44:40.626Z,59.34
2022-09-23T01:47:12.002Z,59.95
2022-09-23T01:49:54.235Z,60.40
2022-09-23T01:52:40.634Z,61.31
2022-09-23T01:55:13.384Z,61.32
2022-09-23T01:58:06.073Z,61.83
2022-09-23T02:00:39.371Z,61.43
2022-09-23T02:03:17.472Z,60.70
2022-09-23T02:05:51.573Z,60.20
2022-09-23T02:08:38.376Z,60.84
2022-09-23T02:11:11.682Z,60.52
2022-09-23T02:18:09.548Z,60.60
2022-09-23T02:20:44.935Z,60.42
2022-09-23T02:23:51.214Z,60.48
2022-09-23T02:26:30.192Z,61.95
2022-09-23T02:29:09.861Z,61.89
2022-09-23T02:31:42.404Z,61.17
2022-09-23T02:34:36.933Z,59.95
2022-09-23T02:37:15.837Z,60.45
2022-09-23T02:40:02.147Z,60.23
2022-09-23T02:42:39.432Z,60.18
2022-09-23T02:45:07.065Z,59.29
2022-09-23T02:47:47.223Z,59.31
2022-09-23T02:50:14.565Z,58.99
2022-09-23T02:52:43.170Z,58.45
2022-09-23T02:55:11.867Z,59.26
2022-09-23T02:57:38.738Z,58.94
2022-09-23T03:00:06.164Z,58.63
2022-09-23T03:02:43.104Z,58.87
2022-09-23T03:05:33.557Z,59.36
2022-09-23T03:08:21.625Z,58.97
2022-09-23T03:11:11.588Z,59.36
2022-09-23T03:13:55.517Z,59.22
2022-09-23T03:16:44.326Z,58.64
2022-09-23T03:19:32.742Z,59.00
2022-09-23T03:22:18.420Z,58.71
2022-09-23T03:24:51.952Z,59.20
2022-09-23T03:27:25.385Z,59.90
2022-09-23T03:29:58.750Z,59.61
2022-09-23T03:32:28.327Z,58.23
2022-09-23T03:34:58.724Z,58.73
2022-09-23T03:37:30.205Z,58.90
2022-09-23T03:40:12.960Z,59.28
2022-09-23T03:42:40.665Z,58.67
2022-09-23T03:45:12.013Z,58.70
2022-09-23T03:47:39.292Z,58.60
2022-09-23T03:50:06.875Z,58.49
2022-09-23T03:52:40.614Z,57.40
2022-09-23T03:55:08.234Z,56.94
2022-09-23T03:57:47.125Z,57.28
2022-09-23T04:00:15.070Z,56.40
2022-09-23T04:02:42.331Z,56.74
2022-09-23T04:05:10.630Z,56.34
2022-09-23T04:07:37.475Z,56.57
2022-09-23T04:10:05.728Z,57.00
2022-09-23T04:12:32.769Z,56.17
2022-09-23T04:14:59.648Z,55.80
2022-09-23T04:17:34.458Z,56.20
2022-09-23T04:20:01.288Z,56.42
2022-09-23T04:22:29.700Z,56.35
2022-09-23T04:24:56.543Z,55.71
2022-09-23T04:27:23.270Z,56.02
2022-09-23T04:29:50.465Z,56.90
2022-09-23T04:32:25.322Z,57.08
2022-09-23T04:34:51.989Z,54.84
2022-09-23T04:37:18.823Z,53.53
2022-09-23T04:39:45.844Z,52.77
2022-09-23T04:42:15.810Z,51.21
2022-09-23T04:44:44.917Z,50.56
2022-09-23T04:47:11.801Z,50.08
2022-09-23T04:49:38.727Z,46.99
2022-09-23T04:52:05.604Z,47.86
2022-09-23T04:54:32.537Z,47.00
2022-09-23T04:56:59.346Z,46.62
2022-09-23T04:59:26.251Z,45.14
2022-09-23T05:02:07.940Z,44.21
2022-09-23T05:04:34.802Z,45.02
2022-09-23T05:07:09.055Z,44.10
2022-09-23T05:09:38.475Z,43.92
2022-09-23T05:12:05.493Z,44.09
2022-09-23T05:14:34.290Z,43.93
2022-09-23T05:17:01.269Z,44.38
2022-09-23T05:19:28.180Z,45.04
2022-09-23T05:21:55.739Z,45.08
2022-09-23T05:24:22.678Z,46.47
2022-09-23T05:26:49.416Z,46.36
2022-09-23T05:29:16.157Z,44.97
2022-09-23T05:31:46.022Z,44.25
2022-09-23T05:34:15.884Z,42.87
2022-09-23T05:36:42.584Z,42.48
2022-09-23T05:39:09.555Z,42.15
2022-09-23T05:41:39.094Z,41.11
2022-09-23T05:47:00.790Z,42.50
2022-09-23T05:49:42.867Z,42.68
2022-09-23T05:52:14.608Z,41.84
2022-09-23T05:54:41.380Z,42.83
2022-09-23T05:57:08.229Z,43.76
2022-09-23T05:59:34.965Z,43.45
2022-09-23T06:02:06.385Z,42.41
2022-09-23T06:04:33.278Z,44.22
2022-09-23T06:07:03.344Z,44.50
2022-09-23T06:09:35.540Z,44.55
2022-09-23T06:12:04.453Z,42.57
2022-09-23T06:14:31.202Z,43.16
2022-09-23T06:16:57.930Z,43.54
2022-09-23T06:19:24.816Z,43.86
2022-09-23T06:21:51.854Z,43.45
2022-09-23T06:24:21.989Z,44.56
2022-09-23T06:26:50.683Z,46.26
2022-09-23T06:29:17.464Z,46.44
2022-09-23T06:31:44.232Z,45.09
2022-09-23T06:34:13.747Z,44.40
2022-09-23T06:36:45.099Z,45.38
2022-09-23T06:39:15.920Z,45.15
2022-09-23T06:41:43.560Z,45.27
2022-09-23T06:44:10.363Z,45.31
2022-09-23T06:46:37.298Z,44.78
2022-09-23T06:49:04.933Z,44.85
2022-09-23T06:51:33.135Z,44.87
2022-09-23T06:54:00.025Z,45.53
2022-09-23T06:56:26.875Z,46.38
2022-09-23T06:58:54.354Z,45.90
2022-09-23T07:01:21.166Z,45.49
2022-09-23T07:03:48.246Z,45.36
2022-09-23T07:06:15.726Z,44.63
2022-09-23T07:08:44.818Z,45.57
2022-09-23T07:11:16.310Z,45.88
2022-09-23T07:13:43.530Z,45.26
2022-09-23T07:16:19.322Z,45.95
2022-09-23T07:18:46.106Z,45.07
2022-09-23T07:21:15.684Z,45.68
2022-09-23T07:23:47.783Z,45.71
2022-09-23T07:26:26.738Z,45.28
2022-09-23T07:28:57.656Z,45.18
2022-09-23T07:31:37.569Z,44.14
2022-09-23T07:34:08.189Z,43.16
2022-09-23T07:36:36.046Z,43.58
2022-09-23T07:39:02.836Z,44.45
2022-09-23T07:41:31.575Z,44.70
2022-09-23T07:43:59.300Z,44.27
2022-09-23T07:46:37.445Z,44.90
2022-09-23T07:49:05.415Z,45.53
2022-09-23T07:51:43.785Z,46.44
2022-09-23T07:54:13.773Z,45.09
2022-09-23T07:56:47.717Z,44.43
2022-09-23T07:59:17.175Z,44.31
2022-09-23T08:01:47.037Z,43.43
2022-09-23T08:04:28.400Z,43.14
2022-09-23T08:06:58.002Z,43.62
2022-09-23T08:09:28.292Z,44.41
2022-09-23T08:11:55.907Z,43.23
2022-09-23T08:14:24.321Z,42.27
2022-09-23T08:17:22.649Z,42.81
2022-09-23T08:20:05.372Z,42.36
2022-09-23T08:22:32.485Z,41.44
2022-09-23T08:25:02.717Z,41.43
2022-09-23T08:27:29.551Z,41.59
2022-09-23T08:29:56.389Z,40.62
2022-09-23T08:32:30.395Z,40.72
2022-09-23T08:34:57.437Z,40.83
2022-09-23T08:37:24.312Z,41.22
2022-09-23T08:39:51.204Z,41.02
2022-09-23T08:42:28.086Z,39.22
2022-09-23T08:45:02.542Z,38.69
2022-09-23T08:47:40.964Z,39.71
2022-09-23T08:50:09.430Z,38.93
2022-09-23T08:52:58.113Z,39.49
2022-09-23T08:55:48.994Z,38.95
2022-09-23T08:58:45.626Z,39.42
2022-09-23T09:01:33.855Z,38.28
2022-09-23T09:04:04.170Z,39.19
2022-09-23T09:06:54.147Z,39.88
2022-09-23T09:09:32.417Z,40.26
2022-09-23T09:12:48.165Z,40.98
2022-09-23T09:15:26.250Z,40.51
2022-09-23T09:18:07.978Z,40.16
2022-09-23T09:20:55.887Z,39.45
2022-09-23T09:23:27.401Z,39.22
2022-09-23T09:26:04.276Z,40.86
2022-09-23T09:28:48.109Z,41.03
2022-09-23T09:31:38.824Z,40.81
2022-09-23T09:34:14.854Z,38.57
2022-09-23T09:36:47.940Z,38.51
2022-09-23T09:39:15.765Z,38.25
2022-09-23T09:41:47.781Z,38.29
2022-09-23T09:44:26.021Z,38.34
2022-09-23T09:47:24.950Z,38.51
2022-09-23T09:50:08.335Z,39.29
2022-09-23T09:52:38.912Z,39.26
2022-09-23T09:55:14.773Z,36.97
2022-09-23T09:57:54.170Z,36.08
2022-09-23T10:00:26.853Z,35.91
2022-09-23T10:03:30.662Z,33.17
2022-09-23T10:05:57.508Z,33.38
2022-09-23T10:08:33.895Z,30.80
2022-09-23T10:11:03.187Z,30.44
2022-09-23T10:13:31.254Z,31.17
2022-09-23T10:16:02.686Z,31.49
2022-09-23T10:18:47.214Z,32.68
2022-09-23T10:21:23.102Z,31.66
2022-09-23T10:23:57.150Z,31.86
2022-09-23T10:27:03.982Z,31.90
2022-09-23T10:29:49.408Z,31.93
2022-09-23T10:32:34.173Z,31.53
2022-09-23T10:35:16.134Z,31.16
2022-09-23T10:37:45.650Z,31.18
2022-09-23T10:40:39.036Z,31.00
2022-09-23T10:43:32.840Z,28.33
2022-09-23T10:46:04.300Z,28.73
2022-09-23T10:49:17.188Z,30.29
2022-09-23T10:52:04.393Z,31.97
2022-09-23T10:54:49.493Z,31.66
2022-09-23T10:57:41.909Z,31.74
2022-09-23T11:00:22.911Z,31.23
2022-09-23T11:03:10.236Z,32.18
2022-09-23T11:06:09.532Z,31.09
2022-09-23T11:08:53.183Z,30.65
2022-09-23T11:11:34.824Z,30.22
2022-09-23T11:14:04.493Z,31.42
2022-09-23T11:16:57.595Z,30.42
2022-09-23T11:19:45.527Z,29.53
2022-09-23T11:22:31.745Z,29.72
2022-09-23T11:25:47.378Z,29.23
2022-09-23T11:28:29.586Z,27.70
2022-09-23T11:31:18.097Z,27.16
2022-09-23T11:34:28.682Z,27.27
2022-09-23T11:37:14.284Z,28.72
2022-09-23T11:40:13.347Z,29.15
2022-09-23T11:42:52.765Z,28.96
2022-09-23T11:45:31.481Z,29.67
2022-09-23T11:48:25.720Z,29.56
2022-09-23T11:50:57.580Z,29.71
2022-09-23T11:54:02.895Z,30.37
2022-09-23T11:56:50.266Z,29.53
2022-09-23T11:59:40.843Z,28.70
2022-09-23T12:02:20.799Z,28.69
2022-09-23T12:05:12.649Z,28.54
2022-09-23T12:08:13.050Z,28.77
2022-09-23T12:10:53.749Z,27.26
2022-09-23T12:13:36.745Z,27.40
2022-09-23T12:16:25.987Z,27.04
2022-09-23T12:19:08.019Z,27.63
2022-09-23T12:21:52.678Z,28.89
2022-09-23T12:24:44.362Z,29.43
2022-09-23T12:27:22.718Z,29.03
2022-09-23T12:29:59.569Z,30.07
2022-09-23T12:32:27.367Z,27.95
2022-09-23T12:34:54.958Z,27.44
2022-09-23T12:37:28.845Z,27.50
2022-09-23T12:40:07.589Z,26.35
2022-09-23T12:42:35.913Z,27.19
2022-09-23T12:45:35.165Z,26.76
2022-09-23T12:48:04.355Z,27.69
2022-09-23T12:50:51.569Z,26.10
2022-09-23T12:53:33.677Z,26.02
2022-09-23T12:56:23.078Z,24.78
2022-09-23T12:58:49.999Z,24.73
2022-09-23T13:01:25.363Z,24.10
2022-09-23T13:03:58.707Z,26.58
2022-09-23T13:06:41.463Z,28.18
2022-09-23T13:09:20.304Z,28.95
2022-09-23T13:11:48.547Z,28.27
2022-09-23T13:14:26.602Z,28.43
2022-09-23T13:16:55.417Z,28.24
2022-09-23T13:33:19.377Z,27.03
2022-09-23T13:35:50.420Z,26.78
2022-09-23T13:38:28.115Z,27.77
2022-09-23T13:41:04.707Z,25.69
2022-09-23T13:43:40.915Z,26.72
2022-09-23T13:46:40.890Z,25.88
2022-09-23T13:49:27.290Z,26.42
2022-09-23T13:51:56.433Z,24.18
2022-09-23T13:54:31.963Z,23.06
2022-09-23T13:56:59.584Z,24.47
2022-09-23T13:59:41.169Z,25.41
2022-09-23T14:02:16.820Z,25.34
2022-09-23T14:04:46.285Z,25.54
2022-09-23T14:07:15.748Z,25.75
2022-09-23T14:09:46.435Z,26.05
2022-09-23T14:12:13.723Z,26.02
2022-09-23T14:14:42.206Z,25.75
2022-09-23T14:17:14.304Z,26.56
2022-09-23T14:19:45.542Z,25.89
2022-09-23T14:22:30.787Z,26.07
2022-09-23T14:24:58.324Z,24.81
2022-09-23T14:27:29.179Z,25.78
2022-09-23T14:29:56.437Z,25.33
2022-09-23T14:32:25.328Z,24.50
2022-09-23T14:35:01.219Z,24.94
2022-09-23T14:37:36.908Z,24.78
2022-09-23T14:40:08.986Z,25.85
2022-09-23T14:42:39.990Z,24.66
2022-09-23T14:45:11.944Z,24.20
2022-09-23T14:47:44.178Z,24.96
2022-09-23T14:50:23.647Z,24.87
2022-09-23T14:52:51.376Z,25.30
2022-09-23T14:55:18.679Z,24.51
2022-09-23T14:57:46.096Z,24.51
2022-09-23T15:00:20.534Z,25.10
2022-09-23T15:03:11.565Z,25.86
2022-09-23T15:05:44.467Z,26.26
2022-09-23T15:08:17.811Z,26.98
2022-09-23T15:10:45.263Z,26.98
2022-09-23T15:13:16.754Z,25.40
2022-09-23T15:15:44.404Z,26.43
2022-09-23T15:18:30.271Z,27.13
2022-09-23T15:21:16.293Z,27.54
2022-09-23T15:23:56.220Z,27.74
2022-09-23T15:26:43.061Z,26.86
2022-09-23T15:29:10.161Z,27.42
2022-09-23T15:31:37.363Z,28.15
2022-09-23T15:34:05.108Z,28.14
2022-09-23T15:36:32.251Z,28.13
2022-09-23T15:39:03.789Z,28.42
2022-09-23T15:41:30.719Z,28.60
2022-09-23T15:43:57.557Z,28.99
2022-09-23T15:46:27.390Z,28.90
2022-09-23T15:49:09.010Z,29.35
2022-09-23T15:51:35.798Z,29.49
2022-09-23T15:54:02.576Z,29.46
2022-09-23T15:56:29.575Z,29.72
2022-09-23T15:58:56.281Z,29.59
2022-09-23T16:01:33.391Z,30.01
2022-09-23T16:04:00.314Z,29.60
2022-09-23T16:06:27.386Z,29.50
2022-09-23T16:08:54.600Z,29.69
2022-09-23T16:11:25.246Z,29.18
2022-09-23T16:13:52.116Z,29.54
2022-09-23T16:16:19.592Z,29.96
2022-09-23T16:18:46.449Z,29.43
2022-09-23T16:21:14.576Z,30.35
2022-09-23T16:23:44.049Z,30.12
2022-09-23T16:26:14.509Z,30.12
2022-09-23T16:28:42.239Z,29.88
2022-09-23T16:31:09.266Z,30.09
2022-09-23T16:33:36.108Z,30.33
2022-09-23T16:36:03.156Z,30.72
2022-09-23T16:38:30.371Z,30.62
2022-09-23T16:40:57.385Z,30.33
2022-09-23T16:43:24.222Z,30.68
2022-09-23T16:45:51.116Z,30.35
2022-09-23T16:48:18.072Z,30.32
2022-09-23T16:50:45.099Z,30.48
2022-09-23T16:53:11.937Z,30.73
2022-09-23T16:55:38.720Z,30.68
2022-09-23T16:58:05.514Z,30.43
2022-09-23T17:00:32.592Z,30.31
2022-09-23T17:03:00.116Z,30.53
2022-09-23T17:05:27.872Z,30.04
2022-09-23T17:07:54.918Z,30.20
2022-09-23T17:10:21.727Z,30.38
2022-09-23T17:12:48.577Z,30.02
2022-09-23T17:15:15.630Z,30.41
2022-09-23T17:17:44.712Z,30.20
2022-09-23T17:20:11.586Z,30.30
2022-09-23T17:22:38.731Z,29.97
2022-09-23T17:25:08.622Z,29.88
2022-09-23T17:27:36.135Z,30.34
2022-09-23T17:30:04.472Z,32.61
2022-09-23T17:32:31.840Z,35.04
2022-09-23T17:34:58.772Z,37.00
2022-09-23T17:37:25.586Z,38.50
2022-09-23T17:39:52.353Z,39.72
2022-09-23T17:42:19.161Z,40.42
2022-09-23T17:44:46.182Z,42.09
2022-09-23T17:47:13.088Z,42.38
2022-09-23T17:49:40.182Z,42.86
2022-09-23T17:52:07.609Z,44.86
2022-09-23T17:54:34.851Z,46.10
2022-09-23T17:57:02.015Z,45.61
2022-09-23T17:59:30.451Z,46.74
2022-09-23T18:08:17.538Z,48.60
2022-09-23T18:10:44.594Z,48.96
2022-09-23T18:13:14.600Z,48.90
2022-09-23T18:15:41.446Z,48.66
2022-09-23T18:18:08.257Z,48.27
2022-09-23T18:20:38.653Z,47.65
2022-09-23T18:23:05.673Z,47.10
2022-09-23T18:25:39.881Z,46.48
2022-09-23T18:28:07.239Z,45.70
2022-09-23T18:30:34.122Z,45.02
2022-09-23T18:33:01.124Z,44.62
2022-09-23T18:35:27.989Z,44.91
2022-09-23T18:37:54.809Z,45.07
2022-09-23T18:40:21.747Z,45.64
2022-09-23T18:42:48.620Z,44.58
2022-09-23T18:45:15.445Z,45.09
2022-09-23T18:47:42.285Z,45.12
2022-09-23T18:50:13.462Z,44.78
2022-09-23T18:52:40.388Z,45.14
2022-09-23T18:55:07.455Z,46.49
2022-09-23T18:57:34.274Z,47.04
2022-09-23T19:00:01.042Z,47.47
2022-09-23T19:02:27.765Z,48.02
2022-09-23T19:04:54.584Z,49.07
2022-09-23T19:07:21.451Z,48.38
2022-09-23T19:09:48.183Z,48.91
2022-09-23T19:12:15.321Z,49.70
2022-09-23T19:14:42.121Z,50.28
2022-09-23T19:17:08.822Z,50.81
2022-09-23T19:19:35.723Z,50.98
2022-09-23T19:22:02.766Z,51.17
2022-09-23T19:24:29.494Z,51.44
2022-09-23T19:26:56.343Z,51.14
2022-09-23T19:29:23.133Z,51.48
2022-09-23T19:31:50.502Z,51.73
2022-09-23T19:34:20.195Z,51.19
2022-09-23T19:36:47.644Z,51.24
2022-09-23T19:39:22.470Z,50.38
2022-09-23T19:41:50.798Z,50.32
2022-09-23T19:44:17.718Z,50.53
2022-09-23T19:46:46.237Z,50.75
2022-09-23T19:49:13.626Z,50.51
2022-09-23T19:51:40.703Z,50.59
2022-09-23T19:54:08.810Z,50.82
2022-09-23T19:56:36.740Z,50.51
2022-09-23T19:59:03.600Z,50.84
2022-09-23T20:01:31.191Z,50.95
2022-09-23T20:03:58.310Z,50.88
2022-09-23T20:06:25.448Z,51.11
2022-09-23T20:08:52.275Z,51.56
2022-09-23T20:11:28.163Z,51.40
2022-09-23T20:14:00.719Z,51.35
2022-09-23T20:16:30.440Z,51.27
2022-09-23T20:18:57.422Z,51.56
2022-09-23T20:21:24.321Z,52.23
2022-09-23T20:23:51.124Z,53.17
2022-09-23T20:26:17.879Z,53.83
2022-09-23T20:28:44.879Z,54.29
2022-09-23T20:31:12.491Z,54.19
2022-09-23T20:33:40.087Z,54.51
2022-09-23T20:36:07.127Z,54.21
2022-09-23T20:38:34.222Z,54.47
2022-09-23T20:41:01.111Z,54.77
2022-09-23T20:43:28.058Z,54.38
2022-09-23T20:45:55.597Z,54.06
2022-09-23T20:48:24.045Z,53.78
2022-09-23T20:50:50.948Z,54.22
2022-09-23T20:53:18.957Z,54.22
2022-09-23T20:55:53.208Z,54.33
2022-09-23T20:58:24.663Z,54.07
2022-09-23T21:00:51.614Z,54.05
2022-09-23T21:03:18.537Z,53.49
2022-09-23T21:05:45.307Z,53.54
2022-09-23T21:08:12.003Z,53.57
2022-09-23T21:10:38.815Z,53.45
2022-09-23T21:13:05.581Z,53.09
2022-09-23T21:15:34.947Z,53.09
2022-09-23T21:18:01.919Z,52.82
2022-09-23T21:20:28.643Z,53.33
2022-09-23T21:22:55.437Z,53.25
2022-09-23T21:25:30.241Z,53.07
2022-09-23T21:27:57.503Z,53.01
2022-09-23T21:30:24.430Z,52.99
2022-09-23T21:32:51.177Z,53.09
2022-09-23T21:35:17.908Z,52.70
2022-09-23T21:37:45.490Z,53.09
2022-09-23T21:40:12.399Z,52.93
2022-09-23T21:42:39.133Z,53.02
2022-09-23T21:45:06.411Z,53.23
2022-09-23T21:47:33.122Z,53.27
2022-09-23T21:49:59.858Z,53.18
2022-09-23T21:52:26.749Z,53.26
2022-09-23T21:54:53.526Z,53.36
2022-09-23T21:57:20.230Z,53.47
2022-09-23T21:59:47.097Z,54.00
2022-09-23T22:02:13.865Z,54.46
2022-09-23T22:04:40.714Z,54.01
2022-09-23T22:07:07.648Z,54.31
2022-09-23T22:09:34.383Z,54.25
2022-09-23T22:12:01.339Z,53.93
2022-09-23T22:14:28.595Z,54.60
2022-09-23T22:16:58.375Z,54.39
2022-09-23T22:19:30.172Z,54.16
2022-09-23T22:21:56.893Z,53.98
2022-09-23T22:24:23.733Z,54.20
2022-09-23T22:26:50.890Z,53.90
2022-09-23T22:29:17.723Z,54.14
2022-09-23T22:31:44.906Z,53.64
2022-09-23T22:34:37.727Z,53.81
2022-09-23T22:37:01.493Z,54.37
2022-09-23T22:39:29.944Z,54.28
2022-09-23T22:41:57.035Z,53.53
2022-09-23T22:44:24.428Z,53.84
2022-09-23T22:46:51.816Z,54.50
2022-09-23T22:49:18.563Z,54.70
2022-09-23T22:51:45.658Z,55.15
2022-09-23T22:54:12.625Z,55.33
2022-09-23T22:56:39.492Z,55.45
2022-09-23T22:59:08.289Z,55.87
2022-09-23T23:01:35.992Z,56.16
2022-09-23T23:04:03.013Z,55.62
2022-09-23T23:06:32.814Z,56.22
2022-09-23T23:08:59.590Z,55.63
2022-09-23T23:11:26.300Z,55.87
2022-09-23T23:13:53.108Z,56.54
2022-09-23T23:16:20.544Z,56.64
2022-09-23T23:18:47.405Z,57.41
2022-09-23T23:21:16.846Z,56.54
2022-09-23T23:23:46.464Z,57.07
2022-09-23T23:26:16.268Z,56.89
2022-09-23T23:28:44.191Z,57.00
2022-09-23T23:31:14.082Z,57.16
2022-09-23T23:33:41.041Z,57.20
2022-09-23T23:36:09.290Z,57.78
2022-09-23T23:38:44.470Z,57.52
2022-09-23T23:41:14.373Z,57.52
2022-09-23T23:43:42.911Z,57.63
2022-09-23T23:46:10.484Z,57.53
2022-09-23T23:48:38.340Z,57.32
2022-09-23T23:51:07.372Z,56.81
2022-09-23T23:53:39.289Z,57.12
2022-09-23T23:56:14.822Z,56.76
2022-09-23T23:58:42.058Z,57.20
